sensor_id;sensor_type;location;lat;lon;timestamp;P1;durP1;ratioP1;P2;durP2;ratioP2
29538;SDS011;16482;51.046;4.498;2023-04-03T00:02:14;4.45;;;3.00;;
29538;SDS011;16482;51.046;4.498;2023-04-03T00:04:40;3.67;;;2.95;;
29538;SDS011;16482;51.046;4.498;2023-04-03T00:07:06;4.63;;;2.97;;
29538;SDS011;16482;51.046;4.498;2023-04-03T00:09:32;3.97;;;2.78;;
29538;SDS011;16482;51.046;4.498;2023-04-03T00:11:58;3.78;;;2.63;;
29538;SDS011;16482;51.046;4.498;2023-04-03T00:14:25;4.35;;;2.70;;
29538;SDS011;16482;51.046;4.498;2023-04-03T00:16:52;4.28;;;2.65;;
29538;SDS011;16482;51.046;4.498;2023-04-03T00:19:18;4.20;;;2.60;;
29538;SDS011;16482;51.046;4.498;2023-04-03T00:21:45;4.20;;;2.90;;
29538;SDS011;16482;51.046;4.498;2023-04-03T00:24:11;4.53;;;2.75;;
29538;SDS011;16482;51.046;4.498;2023-04-03T00:26:40;4.05;;;3.00;;
29538;SDS011;16482;51.046;4.498;2023-04-03T00:29:13;4.03;;;2.80;;
29538;SDS011;16482;51.046;4.498;2023-04-03T00:31:42;3.70;;;2.90;;
29538;SDS011;16482;51.046;4.498;2023-04-03T00:34:13;4.18;;;2.67;;
29538;SDS011;16482;51.046;4.498;2023-04-03T00:36:39;3.45;;;2.70;;
29538;SDS011;16482;51.046;4.498;2023-04-03T00:39:14;4.00;;;2.65;;
29538;SDS011;16482;51.046;4.498;2023-04-03T00:41:43;3.67;;;2.47;;
29538;SDS011;16482;51.046;4.498;2023-04-03T00:47:05;3.42;;;2.75;;
29538;SDS011;16482;51.046;4.498;2023-04-03T00:49:33;3.80;;;2.38;;
29538;SDS011;16482;51.046;4.498;2023-04-03T00:52:00;2.63;;;2.00;;
29538;SDS011;16482;51.046;4.498;2023-04-03T00:54:27;4.00;;;2.50;;
29538;SDS011;16482;51.046;4.498;2023-04-03T00:56:53;3.70;;;2.22;;
29538;SDS011;16482;51.046;4.498;2023-04-03T00:59:21;4.38;;;2.40;;
29538;SDS011;16482;51.046;4.498;2023-04-03T01:01:54;3.72;;;2.30;;
29538;SDS011;16482;51.046;4.498;2023-04-03T01:04:34;2.90;;;2.00;;
29538;SDS011;16482;51.046;4.498;2023-04-03T01:07:05;3.17;;;2.40;;
29538;SDS011;16482;51.046;4.498;2023-04-03T01:09:34;4.28;;;2.30;;
29538;SDS011;16482;51.046;4.498;2023-04-03T01:15:13;3.10;;;2.08;;
29538;SDS011;16482;51.046;4.498;2023-04-03T01:23:23;3.22;;;1.90;;
29538;SDS011;16482;51.046;4.498;2023-04-03T01:26:11;3.35;;;2.30;;
29538;SDS011;16482;51.046;4.498;2023-04-03T01:28:37;3.83;;;2.20;;
29538;SDS011;16482;51.046;4.498;2023-04-03T01:31:25;3.17;;;2.05;;
29538;SDS011;16482;51.046;4.498;2023-04-03T01:33:56;3.38;;;2.17;;
29538;SDS011;16482;51.046;4.498;2023-04-03T01:36:23;3.30;;;2.13;;
29538;SDS011;16482;51.046;4.498;2023-04-03T01:38:53;3.63;;;2.00;;
29538;SDS011;16482;51.046;4.498;2023-04-03T01:41:20;3.72;;;2.15;;
29538;SDS011;16482;51.046;4.498;2023-04-03T01:43:47;2.53;;;2.08;;
29538;SDS011;16482;51.046;4.498;2023-04-03T01:46:14;2.67;;;2.03;;
29538;SDS011;16482;51.046;4.498;2023-04-03T01:48:41;3.75;;;2.30;;
29538;SDS011;16482;51.046;4.498;2023-04-03T01:51:07;3.03;;;2.10;;
29538;SDS011;16482;51.046;4.498;2023-04-03T01:53:33;3.58;;;2.00;;
29538;SDS011;16482;51.046;4.498;2023-04-03T01:55:59;3.40;;;2.28;;
29538;SDS011;16482;51.046;4.498;2023-04-03T01:58:28;3.17;;;2.20;;
29538;SDS011;16482;51.046;4.498;2023-04-03T02:00:54;3.55;;;2.22;;
29538;SDS011;16482;51.046;4.498;2023-04-03T02:03:23;3.92;;;2.42;;
29538;SDS011;16482;51.046;4.498;2023-04-03T02:05:52;2.80;;;2.00;;
29538;SDS011;16482;51.046;4.498;2023-04-03T02:08:23;2.58;;;1.88;;
29538;SDS011;16482;51.046;4.498;2023-04-03T02:10:58;3.20;;;2.15;;
29538;SDS011;16482;51.046;4.498;2023-04-03T02:13:26;4.05;;;2.30;;
29538;SDS011;16482;51.046;4.498;2023-04-03T02:15:55;3.67;;;2.10;;
29538;SDS011;16482;51.046;4.498;2023-04-03T02:18:23;3.08;;;2.05;;
29538;SDS011;16482;51.046;4.498;2023-04-03T02:20:53;3.97;;;2.00;;
29538;SDS011;16482;51.046;4.498;2023-04-03T02:23:26;2.58;;;1.80;;
29538;SDS011;16482;51.046;4.498;2023-04-03T02:25:52;3.60;;;2.00;;
29538;SDS011;16482;51.046;4.498;2023-04-03T02:28:25;2.95;;;1.80;;
29538;SDS011;16482;51.046;4.498;2023-04-03T02:30:54;2.50;;;2.05;;
29538;SDS011;16482;51.046;4.498;2023-04-03T02:33:29;2.65;;;1.75;;
29538;SDS011;16482;51.046;4.498;2023-04-03T02:35:55;2.13;;;1.70;;
29538;SDS011;16482;51.046;4.498;2023-04-03T02:38:22;2.60;;;2.20;;
29538;SDS011;16482;51.046;4.498;2023-04-03T02:40:52;3.35;;;2.00;;
29538;SDS011;16482;51.046;4.498;2023-04-03T02:43:23;3.10;;;1.98;;
29538;SDS011;16482;51.046;4.498;2023-04-03T02:45:58;3.80;;;2.10;;
29538;SDS011;16482;51.046;4.498;2023-04-03T02:48:24;3.28;;;1.80;;
29538;SDS011;16482;51.046;4.498;2023-04-03T02:50:54;2.40;;;1.75;;
29538;SDS011;16482;51.046;4.498;2023-04-03T02:53:23;4.28;;;2.15;;
29538;SDS011;16482;51.046;4.498;2023-04-03T02:55:54;3.05;;;1.77;;
29538;SDS011;16482;51.046;4.498;2023-04-03T02:58:22;2.70;;;1.65;;
29538;SDS011;16482;51.046;4.498;2023-04-03T03:00:58;3.35;;;1.88;;
29538;SDS011;16482;51.046;4.498;2023-04-03T03:03:24;2.35;;;1.90;;
29538;SDS011;16482;51.046;4.498;2023-04-03T03:06:13;2.40;;;1.85;;
29538;SDS011;16482;51.046;4.498;2023-04-03T03:08:38;2.63;;;2.00;;
29538;SDS011;16482;51.046;4.498;2023-04-03T03:11:05;2.13;;;1.60;;
29538;SDS011;16482;51.046;4.498;2023-04-03T03:13:32;2.30;;;1.60;;
29538;SDS011;16482;51.046;4.498;2023-04-03T03:15:58;2.53;;;1.65;;
29538;SDS011;16482;51.046;4.498;2023-04-03T03:18:25;3.13;;;1.85;;
29538;SDS011;16482;51.046;4.498;2023-04-03T03:21:01;2.33;;;1.63;;
29538;SDS011;16482;51.046;4.498;2023-04-03T03:23:28;2.63;;;1.70;;
29538;SDS011;16482;51.046;4.498;2023-04-03T03:25:57;2.03;;;1.77;;
29538;SDS011;16482;51.046;4.498;2023-04-03T03:28:25;2.33;;;1.75;;
29538;SDS011;16482;51.046;4.498;2023-04-03T03:30:54;2.60;;;1.98;;
29538;SDS011;16482;51.046;4.498;2023-04-03T03:33:22;2.65;;;1.80;;
29538;SDS011;16482;51.046;4.498;2023-04-03T03:36:06;2.95;;;1.85;;
29538;SDS011;16482;51.046;4.498;2023-04-03T03:38:32;3.65;;;1.75;;
29538;SDS011;16482;51.046;4.498;2023-04-03T03:40:58;2.83;;;1.73;;
29538;SDS011;16482;51.046;4.498;2023-04-03T03:43:24;2.88;;;1.95;;
29538;SDS011;16482;51.046;4.498;2023-04-03T03:45:59;3.03;;;2.00;;
29538;SDS011;16482;51.046;4.498;2023-04-03T03:48:25;2.53;;;1.80;;
29538;SDS011;16482;51.046;4.498;2023-04-03T03:50:54;3.10;;;1.60;;
29538;SDS011;16482;51.046;4.498;2023-04-03T03:53:23;2.92;;;1.80;;
29538;SDS011;16482;51.046;4.498;2023-04-03T03:55:54;3.38;;;1.80;;
29538;SDS011;16482;51.046;4.498;2023-04-03T03:58:23;2.85;;;1.60;;
29538;SDS011;16482;51.046;4.498;2023-04-03T04:01:10;3.80;;;2.15;;
29538;SDS011;16482;51.046;4.498;2023-04-03T04:03:35;2.53;;;1.60;;
29538;SDS011;16482;51.046;4.498;2023-04-03T04:06:02;2.00;;;1.50;;
29538;SDS011;16482;51.046;4.498;2023-04-03T04:08:28;3.35;;;2.20;;
29538;SDS011;16482;51.046;4.498;2023-04-03T04:10:54;3.55;;;1.45;;
29538;SDS011;16482;51.046;4.498;2023-04-03T04:13:23;3.35;;;2.05;;
29538;SDS011;16482;51.046;4.498;2023-04-03T04:15:58;2.30;;;1.70;;
29538;SDS011;16482;51.046;4.498;2023-04-03T04:18:27;2.58;;;1.48;;
29538;SDS011;16482;51.046;4.498;2023-04-03T04:20:55;3.58;;;2.00;;
29538;SDS011;16482;51.046;4.498;2023-04-03T04:23:24;2.13;;;1.63;;
29538;SDS011;16482;51.046;4.498;2023-04-03T04:25:53;3.28;;;1.98;;
29538;SDS011;16482;51.046;4.498;2023-04-03T04:28:26;2.63;;;1.55;;
29538;SDS011;16482;51.046;4.498;2023-04-03T04:30:54;3.20;;;1.80;;
29538;SDS011;16482;51.046;4.498;2023-04-03T04:33:28;2.85;;;1.95;;
29538;SDS011;16482;51.046;4.498;2023-04-03T04:35:56;2.20;;;1.50;;
29538;SDS011;16482;51.046;4.498;2023-04-03T04:38:22;2.50;;;1.80;;
29538;SDS011;16482;51.046;4.498;2023-04-03T04:40:56;4.05;;;2.05;;
29538;SDS011;16482;51.046;4.498;2023-04-03T04:43:22;3.35;;;1.92;;
29538;SDS011;16482;51.046;4.498;2023-04-03T04:45:57;3.47;;;1.80;;
29538;SDS011;16482;51.046;4.498;2023-04-03T04:48:26;3.15;;;1.88;;
29538;SDS011;16482;51.046;4.498;2023-04-03T04:50:54;3.05;;;1.88;;
29538;SDS011;16482;51.046;4.498;2023-04-03T04:53:23;2.65;;;1.75;;
29538;SDS011;16482;51.046;4.498;2023-04-03T04:55:58;3.05;;;1.90;;
29538;SDS011;16482;51.046;4.498;2023-04-03T04:58:24;2.67;;;1.70;;
29538;SDS011;16482;51.046;4.498;2023-04-03T05:01:00;3.15;;;1.75;;
29538;SDS011;16482;51.046;4.498;2023-04-03T05:03:34;2.65;;;1.67;;
29538;SDS011;16482;51.046;4.498;2023-04-03T05:06:00;2.55;;;1.92;;
29538;SDS011;16482;51.046;4.498;2023-04-03T05:08:26;2.90;;;1.90;;
29538;SDS011;16482;51.046;4.498;2023-04-03T05:10:53;2.25;;;1.60;;
29538;SDS011;16482;51.046;4.498;2023-04-03T05:13:21;3.15;;;1.65;;
29538;SDS011;16482;51.046;4.498;2023-04-03T05:15:54;3.30;;;1.90;;
29538;SDS011;16482;51.046;4.498;2023-04-03T05:18:23;2.22;;;1.40;;
29538;SDS011;16482;51.046;4.498;2023-04-03T05:20:58;3.45;;;1.70;;
29538;SDS011;16482;51.046;4.498;2023-04-03T05:23:24;2.15;;;1.40;;
29538;SDS011;16482;51.046;4.498;2023-04-03T05:25:58;2.53;;;1.50;;
29538;SDS011;16482;51.046;4.498;2023-04-03T05:28:24;2.33;;;1.70;;
29538;SDS011;16482;51.046;4.498;2023-04-03T05:30:56;1.63;;;1.50;;
29538;SDS011;16482;51.046;4.498;2023-04-03T05:33:26;1.95;;;1.50;;
29538;SDS011;16482;51.046;4.498;2023-04-03T05:35:53;1.80;;;1.42;;
29538;SDS011;16482;51.046;4.498;2023-04-03T05:38:24;2.53;;;1.70;;
29538;SDS011;16482;51.046;4.498;2023-04-03T05:40:53;2.47;;;1.60;;
29538;SDS011;16482;51.046;4.498;2023-04-03T05:43:28;2.00;;;1.50;;
29538;SDS011;16482;51.046;4.498;2023-04-03T05:45:54;2.65;;;1.77;;
29538;SDS011;16482;51.046;4.498;2023-04-03T05:48:27;2.40;;;1.70;;
29538;SDS011;16482;51.046;4.498;2023-04-03T05:50:53;2.35;;;1.80;;
29538;SDS011;16482;51.046;4.498;2023-04-03T05:53:29;2.40;;;1.58;;
29538;SDS011;16482;51.046;4.498;2023-04-03T05:55:58;3.70;;;1.70;;
29538;SDS011;16482;51.046;4.498;2023-04-03T05:58:24;4.43;;;1.70;;
29538;SDS011;16482;51.046;4.498;2023-04-03T06:00:53;6.10;;;1.83;;
29538;SDS011;16482;51.046;4.498;2023-04-03T06:03:29;2.25;;;1.48;;
29538;SDS011;16482;51.046;4.498;2023-04-03T06:05:55;2.15;;;1.52;;
29538;SDS011;16482;51.046;4.498;2023-04-03T06:08:24;2.90;;;1.98;;
29538;SDS011;16482;51.046;4.498;2023-04-03T06:10:53;2.55;;;1.35;;
29538;SDS011;16482;51.046;4.498;2023-04-03T06:13:21;3.50;;;1.50;;
29538;SDS011;16482;51.046;4.498;2023-04-03T06:15:54;2.58;;;1.35;;
29538;SDS011;16482;51.046;4.498;2023-04-03T06:18:23;2.53;;;1.58;;
29538;SDS011;16482;51.046;4.498;2023-04-03T06:20:58;3.45;;;1.65;;
29538;SDS011;16482;51.046;4.498;2023-04-03T06:23:25;2.58;;;1.50;;
29538;SDS011;16482;51.046;4.498;2023-04-03T06:25:54;1.75;;;1.40;;
29538;SDS011;16482;51.046;4.498;2023-04-03T06:28:29;3.17;;;1.65;;
29538;SDS011;16482;51.046;4.498;2023-04-03T06:30:55;2.17;;;1.60;;
29538;SDS011;16482;51.046;4.498;2023-04-03T06:33:24;2.67;;;1.70;;
29538;SDS011;16482;51.046;4.498;2023-04-03T06:36:02;2.20;;;1.38;;
29538;SDS011;16482;51.046;4.498;2023-04-03T06:38:30;3.60;;;1.80;;
29538;SDS011;16482;51.046;4.498;2023-04-03T06:40:57;2.30;;;1.17;;
29538;SDS011;16482;51.046;4.498;2023-04-03T06:43:24;2.70;;;1.60;;
29538;SDS011;16482;51.046;4.498;2023-04-03T06:45:59;2.60;;;1.52;;
29538;SDS011;16482;51.046;4.498;2023-04-03T06:48:25;3.67;;;1.73;;
29538;SDS011;16482;51.046;4.498;2023-04-03T06:50:59;2.80;;;1.55;;
29538;SDS011;16482;51.046;4.498;2023-04-03T06:53:25;2.35;;;1.65;;
29538;SDS011;16482;51.046;4.498;2023-04-03T06:55:57;2.88;;;1.63;;
29538;SDS011;16482;51.046;4.498;2023-04-03T06:58:30;2.85;;;1.88;;
29538;SDS011;16482;51.046;4.498;2023-04-03T07:00:56;4.53;;;1.50;;
29538;SDS011;16482;51.046;4.498;2023-04-03T07:03:24;3.05;;;1.85;;
29538;SDS011;16482;51.046;4.498;2023-04-03T07:05:53;3.67;;;2.20;;
29538;SDS011;16482;51.046;4.498;2023-04-03T07:08:30;3.38;;;2.00;;
29538;SDS011;16482;51.046;4.498;2023-04-03T07:10:56;4.03;;;2.20;;
29538;SDS011;16482;51.046;4.498;2023-04-03T07:13:22;5.93;;;2.90;;
29538;SDS011;16482;51.046;4.498;2023-04-03T07:15:55;5.15;;;2.60;;
29538;SDS011;16482;51.046;4.498;2023-04-03T07:18:24;5.28;;;2.40;;
29538;SDS011;16482;51.046;4.498;2023-04-03T07:20:58;6.03;;;3.55;;
29538;SDS011;16482;51.046;4.498;2023-04-03T07:23:24;5.20;;;3.13;;
29538;SDS011;16482;51.046;4.498;2023-04-03T07:25:53;5.10;;;2.75;;
29538;SDS011;16482;51.046;4.498;2023-04-03T07:28:22;5.78;;;2.55;;
29538;SDS011;16482;51.046;4.498;2023-04-03T07:30:59;4.40;;;2.67;;
29538;SDS011;16482;51.046;4.498;2023-04-03T07:33:28;4.13;;;2.40;;
29538;SDS011;16482;51.046;4.498;2023-04-03T07:35:54;5.65;;;2.88;;
29538;SDS011;16482;51.046;4.498;2023-04-03T07:38:23;5.28;;;2.58;;
29538;SDS011;16482;51.046;4.498;2023-04-03T07:40:54;5.45;;;2.80;;
29538;SDS011;16482;51.046;4.498;2023-04-03T07:43:28;7.13;;;2.80;;
29538;SDS011;16482;51.046;4.498;2023-04-03T07:45:54;4.70;;;2.72;;
29538;SDS011;16482;51.046;4.498;2023-04-03T07:48:28;3.55;;;2.40;;
29538;SDS011;16482;51.046;4.498;2023-04-03T07:50:58;5.32;;;3.03;;
29538;SDS011;16482;51.046;4.498;2023-04-03T07:53:26;5.72;;;2.92;;
29538;SDS011;16482;51.046;4.498;2023-04-03T07:55:54;4.97;;;3.08;;
29538;SDS011;16482;51.046;4.498;2023-04-03T07:58:25;5.18;;;3.22;;
29538;SDS011;16482;51.046;4.498;2023-04-03T08:00:54;4.38;;;2.50;;
29538;SDS011;16482;51.046;4.498;2023-04-03T08:03:30;5.05;;;2.60;;
29538;SDS011;16482;51.046;4.498;2023-04-03T08:06:00;6.20;;;2.80;;
29538;SDS011;16482;51.046;4.498;2023-04-03T08:08:29;7.65;;;2.92;;
29538;SDS011;16482;51.046;4.498;2023-04-03T08:10:57;7.10;;;2.80;;
29538;SDS011;16482;51.046;4.498;2023-04-03T08:13:24;5.57;;;2.80;;
29538;SDS011;16482;51.046;4.498;2023-04-03T08:15:53;8.23;;;2.78;;
29538;SDS011;16482;51.046;4.498;2023-04-03T08:18:24;5.65;;;2.90;;
29538;SDS011;16482;51.046;4.498;2023-04-03T08:20:54;7.00;;;2.28;;
29538;SDS011;16482;51.046;4.498;2023-04-03T08:23:27;5.20;;;2.80;;
29538;SDS011;16482;51.046;4.498;2023-04-03T08:25:53;4.82;;;2.60;;
29538;SDS011;16482;51.046;4.498;2023-04-03T08:28:28;3.78;;;2.42;;
29538;SDS011;16482;51.046;4.498;2023-04-03T08:30:54;4.85;;;2.38;;
29538;SDS011;16482;51.046;4.498;2023-04-03T08:33:24;5.00;;;2.58;;
29538;SDS011;16482;51.046;4.498;2023-04-03T08:35:57;4.47;;;2.38;;
29538;SDS011;16482;51.046;4.498;2023-04-03T08:38:26;6.63;;;2.60;;
29538;SDS011;16482;51.046;4.498;2023-04-03T08:41:09;5.00;;;2.75;;
29538;SDS011;16482;51.046;4.498;2023-04-03T08:49:39;4.20;;;2.40;;
29538;SDS011;16482;51.046;4.498;2023-04-03T08:52:15;3.22;;;2.05;;
29538;SDS011;16482;51.046;4.498;2023-04-03T08:57:36;3.75;;;2.45;;
29538;SDS011;16482;51.046;4.498;2023-04-03T09:02:43;5.00;;;2.72;;
29538;SDS011;16482;51.046;4.498;2023-04-03T09:05:18;3.95;;;2.65;;
29538;SDS011;16482;51.046;4.498;2023-04-03T09:07:46;7.20;;;2.58;;
29538;SDS011;16482;51.046;4.498;2023-04-03T09:10:19;5.68;;;2.60;;
29538;SDS011;16482;51.046;4.498;2023-04-03T09:12:53;4.07;;;2.58;;
29538;SDS011;16482;51.046;4.498;2023-04-03T09:15:33;6.13;;;2.50;;
29538;SDS011;16482;51.046;4.498;2023-04-03T09:18:04;5.75;;;2.83;;
29538;SDS011;16482;51.046;4.498;2023-04-03T09:20:43;5.90;;;2.50;;
29538;SDS011;16482;51.046;4.498;2023-04-03T09:26:15;3.97;;;2.70;;
29538;SDS011;16482;51.046;4.498;2023-04-03T09:28:45;3.75;;;2.20;;
29538;SDS011;16482;51.046;4.498;2023-04-03T09:31:16;4.28;;;2.45;;
29538;SDS011;16482;51.046;4.498;2023-04-03T09:33:46;5.10;;;2.47;;
29538;SDS011;16482;51.046;4.498;2023-04-03T09:36:37;6.00;;;2.40;;
29538;SDS011;16482;51.046;4.498;2023-04-03T09:39:21;5.85;;;2.53;;
29538;SDS011;16482;51.046;4.498;2023-04-03T09:41:59;3.97;;;2.28;;
29538;SDS011;16482;51.046;4.498;2023-04-03T09:44:41;5.22;;;2.58;;
29538;SDS011;16482;51.046;4.498;2023-04-03T09:47:18;5.35;;;2.33;;
29538;SDS011;16482;51.046;4.498;2023-04-03T09:52:49;4.07;;;2.28;;
29538;SDS011;16482;51.046;4.498;2023-04-03T09:57:59;3.28;;;2.00;;
29538;SDS011;16482;51.046;4.498;2023-04-03T10:00:37;5.25;;;2.00;;
29538;SDS011;16482;51.046;4.498;2023-04-03T10:03:05;3.90;;;1.85;;
29538;SDS011;16482;51.046;4.498;2023-04-03T10:05:57;6.57;;;2.42;;
29538;SDS011;16482;51.046;4.498;2023-04-03T10:16:45;5.03;;;2.10;;
29538;SDS011;16482;51.046;4.498;2023-04-03T10:19:32;4.57;;;2.17;;
29538;SDS011;16482;51.046;4.498;2023-04-03T10:25:33;4.80;;;2.38;;
29538;SDS011;16482;51.046;4.498;2023-04-03T10:30:34;4.35;;;1.85;;
29538;SDS011;16482;51.046;4.498;2023-04-03T10:33:27;3.42;;;1.90;;
29538;SDS011;16482;51.046;4.498;2023-04-03T10:44:26;4.15;;;1.90;;
29538;SDS011;16482;51.046;4.498;2023-04-03T10:46:53;4.43;;;1.92;;
29538;SDS011;16482;51.046;4.498;2023-04-03T10:57:19;3.33;;;1.80;;
29538;SDS011;16482;51.046;4.498;2023-04-03T10:59:56;3.17;;;1.77;;
29538;SDS011;16482;51.046;4.498;2023-04-03T11:02:39;4.78;;;2.10;;
29538;SDS011;16482;51.046;4.498;2023-04-03T11:07:57;2.65;;;1.60;;
29538;SDS011;16482;51.046;4.498;2023-04-03T11:10:42;3.60;;;1.88;;
29538;SDS011;16482;51.046;4.498;2023-04-03T11:15:38;2.78;;;1.50;;
29538;SDS011;16482;51.046;4.498;2023-04-03T11:18:13;3.95;;;1.70;;
29538;SDS011;16482;51.046;4.498;2023-04-03T11:21:04;3.67;;;1.52;;
29538;SDS011;16482;51.046;4.498;2023-04-03T11:23:54;3.67;;;1.77;;
29538;SDS011;16482;51.046;4.498;2023-04-03T11:26:24;3.80;;;1.50;;
29538;SDS011;16482;51.046;4.498;2023-04-03T11:28:56;2.70;;;1.45;;
29538;SDS011;16482;51.046;4.498;2023-04-03T11:31:54;3.00;;;1.58;;
29538;SDS011;16482;51.046;4.498;2023-04-03T11:34:37;4.93;;;1.40;;
29538;SDS011;16482;51.046;4.498;2023-04-03T11:37:13;3.15;;;1.60;;
29538;SDS011;16482;51.046;4.498;2023-04-03T11:42:49;2.38;;;1.20;;
29538;SDS011;16482;51.046;4.498;2023-04-03T11:47:58;1.65;;;1.23;;
29538;SDS011;16482;51.046;4.498;2023-04-03T11:59:26;1.95;;;1.40;;
29538;SDS011;16482;51.046;4.498;2023-04-03T12:01:52;3.22;;;1.23;;
29538;SDS011;16482;51.046;4.498;2023-04-03T12:04:23;4.22;;;1.20;;
29538;SDS011;16482;51.046;4.498;2023-04-03T12:07:00;3.03;;;1.42;;
29538;SDS011;16482;51.046;4.498;2023-04-03T12:15:18;2.80;;;1.10;;
29538;SDS011;16482;51.046;4.498;2023-04-03T12:17:45;2.88;;;1.20;;
29538;SDS011;16482;51.046;4.498;2023-04-03T12:20:58;2.58;;;1.30;;
29538;SDS011;16482;51.046;4.498;2023-04-03T12:23:26;3.67;;;1.13;;
29538;SDS011;16482;51.046;4.498;2023-04-03T12:28:44;2.45;;;1.33;;
29538;SDS011;16482;51.046;4.498;2023-04-03T12:31:12;2.67;;;1.48;;
29538;SDS011;16482;51.046;4.498;2023-04-03T12:36:54;1.70;;;1.20;;
29538;SDS011;16482;51.046;4.498;2023-04-03T12:39:44;3.40;;;1.40;;
29538;SDS011;16482;51.046;4.498;2023-04-03T12:42:23;4.93;;;1.40;;
29538;SDS011;16482;51.046;4.498;2023-04-03T12:47:49;2.38;;;1.30;;
29538;SDS011;16482;51.046;4.498;2023-04-03T12:50:25;4.20;;;1.55;;
29538;SDS011;16482;51.046;4.498;2023-04-03T12:53:02;4.43;;;1.60;;
29538;SDS011;16482;51.046;4.498;2023-04-03T12:55:31;2.42;;;1.60;;
29538;SDS011;16482;51.046;4.498;2023-04-03T12:58:12;3.17;;;1.50;;
29538;SDS011;16482;51.046;4.498;2023-04-03T13:01:08;2.58;;;1.42;;
29538;SDS011;16482;51.046;4.498;2023-04-03T13:03:40;1.88;;;1.35;;
29538;SDS011;16482;51.046;4.498;2023-04-03T13:06:10;1.83;;;1.42;;
29538;SDS011;16482;51.046;4.498;2023-04-03T13:08:50;2.28;;;1.38;;
29538;SDS011;16482;51.046;4.498;2023-04-03T13:11:17;2.83;;;1.38;;
29538;SDS011;16482;51.046;4.498;2023-04-03T13:14:03;3.22;;;1.50;;
29538;SDS011;16482;51.046;4.498;2023-04-03T13:16:31;5.88;;;1.67;;
29538;SDS011;16482;51.046;4.498;2023-04-03T13:18:58;2.03;;;1.38;;
29538;SDS011;16482;51.046;4.498;2023-04-03T13:21:30;2.35;;;1.27;;
29538;SDS011;16482;51.046;4.498;2023-04-03T13:24:00;3.45;;;1.33;;
29538;SDS011;16482;51.046;4.498;2023-04-03T13:26:29;3.53;;;1.52;;
29538;SDS011;16482;51.046;4.498;2023-04-03T13:29:14;6.53;;;1.52;;
29538;SDS011;16482;51.046;4.498;2023-04-03T13:31:46;2.28;;;1.30;;
29538;SDS011;16482;51.046;4.498;2023-04-03T13:34:18;4.60;;;1.38;;
29538;SDS011;16482;51.046;4.498;2023-04-03T13:37:11;4.05;;;1.60;;
29538;SDS011;16482;51.046;4.498;2023-04-03T13:39:44;4.13;;;1.58;;
29538;SDS011;16482;51.046;4.498;2023-04-03T13:42:20;6.53;;;1.40;;
29538;SDS011;16482;51.046;4.498;2023-04-03T13:44:48;6.75;;;1.80;;
29538;SDS011;16482;51.046;4.498;2023-04-03T13:47:37;2.83;;;1.40;;
29538;SDS011;16482;51.046;4.498;2023-04-03T13:50:16;2.45;;;1.58;;
29538;SDS011;16482;51.046;4.498;2023-04-03T13:52:47;2.97;;;1.60;;
29538;SDS011;16482;51.046;4.498;2023-04-03T13:58:16;3.65;;;1.90;;
29538;SDS011;16482;51.046;4.498;2023-04-03T14:01:32;4.47;;;1.80;;
29538;SDS011;16482;51.046;4.498;2023-04-03T14:03:51;4.78;;;1.50;;
29538;SDS011;16482;51.046;4.498;2023-04-03T14:06:22;3.60;;;1.80;;
29538;SDS011;16482;51.046;4.498;2023-04-03T14:08:49;3.83;;;1.52;;
29538;SDS011;16482;51.046;4.498;2023-04-03T14:11:22;3.03;;;1.55;;
29538;SDS011;16482;51.046;4.498;2023-04-03T14:13:54;2.83;;;1.40;;
29538;SDS011;16482;51.046;4.498;2023-04-03T14:16:25;3.78;;;1.55;;
29538;SDS011;16482;51.046;4.498;2023-04-03T14:18:54;9.30;;;1.73;;
29538;SDS011;16482;51.046;4.498;2023-04-03T14:21:21;2.60;;;1.42;;
29538;SDS011;16482;51.046;4.498;2023-04-03T14:23:47;4.65;;;1.80;;
29538;SDS011;16482;51.046;4.498;2023-04-03T14:26:14;2.17;;;1.30;;
29538;SDS011;16482;51.046;4.498;2023-04-03T14:28:47;4.18;;;1.40;;
29538;SDS011;16482;51.046;4.498;2023-04-03T14:31:17;3.38;;;1.67;;
29538;SDS011;16482;51.046;4.498;2023-04-03T14:33:44;2.35;;;1.30;;
29538;SDS011;16482;51.046;4.498;2023-04-03T14:36:12;2.30;;;1.40;;
29538;SDS011;16482;51.046;4.498;2023-04-03T14:38:52;3.33;;;1.70;;
29538;SDS011;16482;51.046;4.498;2023-04-03T14:41:20;2.08;;;1.33;;
29538;SDS011;16482;51.046;4.498;2023-04-03T14:43:52;6.07;;;1.40;;
29538;SDS011;16482;51.046;4.498;2023-04-03T14:46:21;1.90;;;1.38;;
29538;SDS011;16482;51.046;4.498;2023-04-03T14:51:22;2.45;;;1.55;;
29538;SDS011;16482;51.046;4.498;2023-04-03T14:53:48;2.28;;;1.52;;
29538;SDS011;16482;51.046;4.498;2023-04-03T14:56:19;4.13;;;1.83;;
29538;SDS011;16482;51.046;4.498;2023-04-03T14:58:49;2.85;;;1.27;;
29538;SDS011;16482;51.046;4.498;2023-04-03T15:01:20;1.63;;;1.20;;
29538;SDS011;16482;51.046;4.498;2023-04-03T15:03:46;2.33;;;1.30;;
29538;SDS011;16482;51.046;4.498;2023-04-03T15:06:13;3.28;;;1.55;;
29538;SDS011;16482;51.046;4.498;2023-04-03T15:08:41;3.53;;;1.58;;
29538;SDS011;16482;51.046;4.498;2023-04-03T15:11:10;2.92;;;1.30;;
29538;SDS011;16482;51.046;4.498;2023-04-03T15:13:37;1.55;;;1.15;;
29538;SDS011;16482;51.046;4.498;2023-04-03T15:16:04;3.15;;;1.55;;
29538;SDS011;16482;51.046;4.498;2023-04-03T15:18:41;2.00;;;1.48;;
29538;SDS011;16482;51.046;4.498;2023-04-03T15:21:08;3.17;;;1.50;;
29538;SDS011;16482;51.046;4.498;2023-04-03T15:23:34;2.85;;;1.40;;
29538;SDS011;16482;51.046;4.498;2023-04-03T15:26:00;2.75;;;1.50;;
29538;SDS011;16482;51.046;4.498;2023-04-03T15:28:31;2.72;;;1.50;;
29538;SDS011;16482;51.046;4.498;2023-04-03T15:31:00;2.78;;;1.55;;
29538;SDS011;16482;51.046;4.498;2023-04-03T15:33:26;2.47;;;1.52;;
29538;SDS011;16482;51.046;4.498;2023-04-03T15:36:02;2.92;;;1.45;;
29538;SDS011;16482;51.046;4.498;2023-04-03T15:38:29;1.85;;;1.30;;
29538;SDS011;16482;51.046;4.498;2023-04-03T15:40:55;3.13;;;1.65;;
29538;SDS011;16482;51.046;4.498;2023-04-03T15:43:39;4.63;;;1.58;;
29538;SDS011;16482;51.046;4.498;2023-04-03T15:46:05;2.28;;;1.48;;
29538;SDS011;16482;51.046;4.498;2023-04-03T15:48:31;4.05;;;1.90;;
29538;SDS011;16482;51.046;4.498;2023-04-03T15:50:57;3.58;;;1.60;;
29538;SDS011;16482;51.046;4.498;2023-04-03T15:53:26;3.22;;;1.83;;
29538;SDS011;16482;51.046;4.498;2023-04-03T15:56:09;3.78;;;1.60;;
29538;SDS011;16482;51.046;4.498;2023-04-03T15:58:37;4.95;;;1.80;;
29538;SDS011;16482;51.046;4.498;2023-04-03T16:01:03;3.83;;;1.88;;
29538;SDS011;16482;51.046;4.498;2023-04-03T16:03:29;3.22;;;1.90;;
29538;SDS011;16482;51.046;4.498;2023-04-03T16:06:04;5.40;;;1.88;;
29538;SDS011;16482;51.046;4.498;2023-04-03T16:08:30;4.47;;;1.65;;
29538;SDS011;16482;51.046;4.498;2023-04-03T16:10:56;2.35;;;1.55;;
29538;SDS011;16482;51.046;4.498;2023-04-03T16:13:26;5.03;;;1.58;;
29538;SDS011;16482;51.046;4.498;2023-04-03T16:16:02;3.35;;;1.63;;
29538;SDS011;16482;51.046;4.498;2023-04-03T16:18:29;2.60;;;1.70;;
29538;SDS011;16482;51.046;4.498;2023-04-03T16:20:55;4.85;;;1.70;;
29538;SDS011;16482;51.046;4.498;2023-04-03T16:23:26;6.30;;;2.30;;
29538;SDS011;16482;51.046;4.498;2023-04-03T16:26:01;6.63;;;2.20;;
29538;SDS011;16482;51.046;4.498;2023-04-03T16:28:28;9.93;;;2.80;;
29538;SDS011;16482;51.046;4.498;2023-04-03T16:31:01;10.77;;;3.20;;
29538;SDS011;16482;51.046;4.498;2023-04-03T16:33:27;21.08;;;6.85;;
29538;SDS011;16482;51.046;4.498;2023-04-03T16:35:57;16.30;;;4.50;;
29538;SDS011;16482;51.046;4.498;2023-04-03T16:38:32;18.50;;;4.93;;
29538;SDS011;16482;51.046;4.498;2023-04-03T16:40:58;17.92;;;4.13;;
29538;SDS011;16482;51.046;4.498;2023-04-03T16:43:29;12.65;;;4.40;;
29538;SDS011;16482;51.046;4.498;2023-04-03T16:45:58;18.02;;;4.90;;
29538;SDS011;16482;51.046;4.498;2023-04-03T16:48:30;18.05;;;5.70;;
29538;SDS011;16482;51.046;4.498;2023-04-03T16:50:58;17.40;;;4.65;;
29538;SDS011;16482;51.046;4.498;2023-04-03T16:53:27;15.68;;;4.40;;
29538;SDS011;16482;51.046;4.498;2023-04-03T16:55:56;14.13;;;4.10;;